createdAt,value
2019-02-17T00:00:51.998Z,266.70
2019-02-17T00:03:19.900Z,237.70
2019-02-17T00:05:47.753Z,259.37
2019-02-17T00:08:15.807Z,231.20
2019-02-17T00:10:43.774Z,272.00
2019-02-17T00:13:11.742Z,238.70
2019-02-17T00:15:39.677Z,241.00
2019-02-17T00:18:07.519Z,249.92
2019-02-17T00:20:35.551Z,259.45
2019-02-17T00:23:03.442Z,281.23
2019-02-17T00:25:31.286Z,273.38
2019-02-17T00:27:59.205Z,264.70
2019-02-17T00:30:27.052Z,272.37
2019-02-17T00:32:55.002Z,257.07
2019-02-17T00:35:22.752Z,245.07
2019-02-17T00:37:50.503Z,252.85
2019-02-17T00:40:18.503Z,244.93
2019-02-17T00:42:46.441Z,247.52
2019-02-17T00:45:14.412Z,246.10
2019-02-17T00:47:52.616Z,243.22
2019-02-17T00:50:20.587Z,224.92
2019-02-17T00:52:48.459Z,228.18
2019-02-17T00:55:16.321Z,235.35
2019-02-17T00:57:44.112Z,221.55
2019-02-17T01:00:13.030Z,200.75
2019-02-17T01:02:41.003Z,176.53
2019-02-17T01:05:09.074Z,195.25
2019-02-17T01:07:37.712Z,197.45
2019-02-17T01:10:05.626Z,177.22
2019-02-17T01:12:33.532Z,202.93
2019-02-17T01:15:01.409Z,162.05
2019-02-17T01:17:29.536Z,216.60
2019-02-17T01:19:57.529Z,249.18
2019-02-17T01:22:25.458Z,238.32
2019-02-17T01:24:53.380Z,198.25
2019-02-17T01:27:21.596Z,173.85
2019-02-17T01:29:49.522Z,189.85
2019-02-17T01:32:17.366Z,195.15
2019-02-17T01:34:45.314Z,193.97
2019-02-17T01:37:13.119Z,186.07
2019-02-17T01:39:50.494Z,191.45
2019-02-17T01:42:18.373Z,183.52
2019-02-17T01:44:46.886Z,203.45
2019-02-17T01:47:15.088Z,197.05
2019-02-17T01:49:45.886Z,208.23
2019-02-17T01:52:13.911Z,206.45
2019-02-17T01:54:41.789Z,232.18
2019-02-17T01:57:09.710Z,242.18
2019-02-17T01:59:37.583Z,224.95
2019-02-17T02:02:05.493Z,234.67
2019-02-17T02:04:33.423Z,221.75
2019-02-17T02:07:01.340Z,213.77
2019-02-17T02:09:29.364Z,226.50
2019-02-17T02:11:57.352Z,210.65
2019-02-17T02:14:25.614Z,220.80
2019-02-17T02:16:53.470Z,220.50
2019-02-17T02:19:21.433Z,219.95
2019-02-17T02:21:49.313Z,222.37
2019-02-17T02:24:17.056Z,228.30
2019-02-17T02:26:44.963Z,228.10
2019-02-17T02:29:13.213Z,217.32
2019-02-17T02:31:41.170Z,234.22
2019-02-17T02:34:08.991Z,210.05
2019-02-17T02:36:36.749Z,198.80
2019-02-17T02:39:06.218Z,192.05
2019-02-17T02:41:35.224Z,194.93
2019-02-17T02:44:03.199Z,177.38
2019-02-17T02:46:31.006Z,192.55
2019-02-17T02:48:58.761Z,190.12
2019-02-17T02:51:26.598Z,174.23
2019-02-17T02:53:54.445Z,166.68
2019-02-17T02:56:23.468Z,168.05
2019-02-17T02:58:51.285Z,183.15
2019-02-17T03:01:19.101Z,181.82
2019-02-17T03:03:46.904Z,193.65
2019-02-17T03:06:35.126Z,183.90
2019-02-17T03:09:04.900Z,195.60
2019-02-17T03:11:32.666Z,241.45
2019-02-17T03:14:00.564Z,217.35
2019-02-17T03:16:28.469Z,197.72
2019-02-17T03:18:56.352Z,209.12
2019-02-17T03:21:24.233Z,211.55
2019-02-17T03:23:52.030Z,223.82
2019-02-17T03:26:20.158Z,203.27
2019-02-17T03:28:48.720Z,188.50
2019-02-17T03:31:16.707Z,199.87
2019-02-17T03:33:44.558Z,207.27
2019-02-17T03:36:12.410Z,220.73
2019-02-17T03:38:40.179Z,216.97
2019-02-17T03:41:08.015Z,209.65
2019-02-17T03:43:35.848Z,219.65
2019-02-17T03:46:04.715Z,192.50
2019-02-17T03:48:32.540Z,192.62
2019-02-17T03:51:00.786Z,183.07
2019-02-17T03:53:29.288Z,183.93
2019-02-17T03:55:58.973Z,183.60
2019-02-17T03:58:26.819Z,188.12
2019-02-17T04:00:54.630Z,188.42
2019-02-17T04:03:22.377Z,233.65
2019-02-17T04:05:50.401Z,232.22
2019-02-17T04:08:18.384Z,237.25
2019-02-17T04:10:46.364Z,221.75
2019-02-17T04:13:14.123Z,210.38
2019-02-17T04:15:42.094Z,229.35
2019-02-17T04:18:10.475Z,211.77
2019-02-17T04:20:39.217Z,205.87
2019-02-17T04:23:07.537Z,220.37
2019-02-17T04:25:35.410Z,213.92
2019-02-17T04:28:03.213Z,216.48
2019-02-17T04:30:31.070Z,198.10
2019-02-17T04:32:58.857Z,196.78
2019-02-17T04:35:26.697Z,217.45
2019-02-17T04:37:54.566Z,203.95
2019-02-17T04:40:22.489Z,196.72
2019-02-17T04:42:50.320Z,165.28
2019-02-17T04:45:18.122Z,144.10
2019-02-17T04:47:45.995Z,129.70
2019-02-17T04:50:13.782Z,123.53
2019-02-17T04:52:42.240Z,124.87
2019-02-17T04:55:10.267Z,103.65
2019-02-17T04:57:38.044Z,103.32
2019-02-17T05:00:06.278Z,102.30
2019-02-17T05:02:34.160Z,103.53
2019-02-17T05:05:02.041Z,122.42
2019-02-17T05:07:30.107Z,134.25
2019-02-17T05:09:57.934Z,100.42
2019-02-17T05:12:25.814Z,110.83
2019-02-17T05:14:53.585Z,105.27
2019-02-17T05:17:21.418Z,293.58
2019-02-17T05:19:49.251Z,247.22
2019-02-17T05:22:17.818Z,240.32
2019-02-17T05:24:45.733Z,212.57
2019-02-17T05:27:13.469Z,185.73
2019-02-17T05:29:41.234Z,163.22
2019-02-17T05:32:09.037Z,166.22
2019-02-17T05:34:37.000Z,151.68
2019-02-17T05:37:04.806Z,119.95
2019-02-17T05:39:33.261Z,116.35
2019-02-17T05:42:01.299Z,105.37
2019-02-17T05:44:29.141Z,77.37
2019-02-17T05:46:56.977Z,61.63
2019-02-17T05:49:24.755Z,50.50
2019-02-17T05:51:52.509Z,52.48
2019-02-17T05:54:20.350Z,48.40
2019-02-17T05:56:48.139Z,51.30
2019-02-17T05:59:16.061Z,53.95
2019-02-17T06:01:44.064Z,52.05
2019-02-17T06:04:11.838Z,48.73
2019-02-17T06:06:39.789Z,45.35
2019-02-17T06:09:07.512Z,44.60
2019-02-17T06:11:35.410Z,44.90
2019-02-17T06:14:03.319Z,44.50
2019-02-17T06:16:31.241Z,45.28
2019-02-17T06:18:58.968Z,49.40
2019-02-17T06:21:26.897Z,48.00
2019-02-17T06:23:54.733Z,54.08
2019-02-17T06:26:22.473Z,53.25
2019-02-17T06:28:50.299Z,57.33
2019-02-17T06:31:18.068Z,67.95
2019-02-17T06:33:45.952Z,73.33
2019-02-17T06:36:13.746Z,100.72
2019-02-17T06:38:41.600Z,132.93
2019-02-17T06:41:09.381Z,131.57
2019-02-17T06:43:37.120Z,126.75
2019-02-17T06:46:05.506Z,121.28
2019-02-17T06:48:33.347Z,120.30
2019-02-17T06:51:01.278Z,121.17
2019-02-17T06:53:29.026Z,114.30
2019-02-17T06:56:01.591Z,108.40
2019-02-17T06:58:29.360Z,110.08
2019-02-17T07:01:01.986Z,119.13
2019-02-17T07:03:29.873Z,118.77
2019-02-17T07:06:21.758Z,158.27
2019-02-17T07:08:49.532Z,183.40
2019-02-17T07:11:17.461Z,159.15
2019-02-17T07:13:45.200Z,151.07
2019-02-17T07:16:13.080Z,149.00
2019-02-17T07:18:41.535Z,146.35
2019-02-17T07:21:09.457Z,137.05
2019-02-17T07:23:37.430Z,102.35
2019-02-17T07:26:05.356Z,85.00
2019-02-17T07:28:33.206Z,77.27
2019-02-17T07:31:01.063Z,68.97
2019-02-17T07:33:28.792Z,69.75
2019-02-17T07:35:56.621Z,71.62
2019-02-17T07:38:24.399Z,67.42
2019-02-17T07:40:52.223Z,68.35
2019-02-17T07:43:20.012Z,72.00
2019-02-17T07:45:48.061Z,72.72
2019-02-17T07:48:15.823Z,73.97
2019-02-17T07:50:44.676Z,67.78
2019-02-17T07:53:12.514Z,79.82
2019-02-17T07:55:40.400Z,76.57
2019-02-17T07:58:08.300Z,79.58
2019-02-17T08:00:36.265Z,80.42
2019-02-17T08:03:11.305Z,79.87
2019-02-17T08:05:39.250Z,82.75
2019-02-17T08:08:07.281Z,82.37
2019-02-17T08:10:35.067Z,83.40
2019-02-17T08:13:02.955Z,81.97
2019-02-17T08:15:31.053Z,79.42
2019-02-17T08:17:58.809Z,70.20
2019-02-17T08:20:26.779Z,75.05
2019-02-17T08:22:54.807Z,79.80
2019-02-17T08:25:22.638Z,77.90
2019-02-17T08:27:50.476Z,74.22
2019-02-17T08:30:18.522Z,71.90
2019-02-17T08:32:46.362Z,73.02
2019-02-17T08:35:15.667Z,72.62
2019-02-17T08:37:43.590Z,73.90
2019-02-17T08:40:11.512Z,68.92
2019-02-17T08:42:39.579Z,75.20
2019-02-17T08:45:07.529Z,72.97
2019-02-17T08:47:35.382Z,70.10
2019-02-17T08:50:04.189Z,73.45
2019-02-17T08:52:31.991Z,74.75
2019-02-17T08:54:59.832Z,71.97
2019-02-17T08:57:27.666Z,70.57
2019-02-17T08:59:55.563Z,74.55
2019-02-17T09:02:23.430Z,70.62
2019-02-17T09:04:54.461Z,71.30
2019-02-17T09:07:22.292Z,198.87
2019-02-17T09:09:50.122Z,163.25
2019-02-17T09:12:18.070Z,60.17
2019-02-17T09:14:46.598Z,63.45
2019-02-17T09:17:14.697Z,55.90
2019-02-17T09:19:42.600Z,55.85
2019-02-17T09:22:10.465Z,58.60
2019-02-17T09:24:38.323Z,51.68
2019-02-17T09:27:07.798Z,57.93
2019-02-17T09:29:35.598Z,58.52
2019-02-17T09:32:03.573Z,58.98
2019-02-17T09:34:31.519Z,62.15
2019-02-17T09:36:59.975Z,53.80
2019-02-17T09:39:27.919Z,54.48
2019-02-17T09:41:55.900Z,49.70
2019-02-17T09:44:23.814Z,50.92
2019-02-17T09:46:51.862Z,50.40
2019-02-17T09:49:19.618Z,47.70
2019-02-17T09:51:47.572Z,56.23
2019-02-17T09:54:15.356Z,52.85
2019-02-17T09:56:43.185Z,45.47
2019-02-17T09:59:11.071Z,39.13
2019-02-17T10:01:38.858Z,42.73
2019-02-17T10:04:06.913Z,45.50
2019-02-17T10:06:34.725Z,38.30
2019-02-17T10:09:04.058Z,45.47
2019-02-17T10:11:31.899Z,33.13
2019-02-17T10:13:59.737Z,34.83
2019-02-17T10:16:27.987Z,31.47
2019-02-17T10:18:55.852Z,27.70
2019-02-17T10:21:25.287Z,28.77
2019-02-17T10:23:53.337Z,27.63
2019-02-17T10:26:21.126Z,30.83
2019-02-17T10:28:49.235Z,29.13
2019-02-17T10:31:17.118Z,25.57
2019-02-17T10:33:44.950Z,30.83
2019-02-17T10:36:12.845Z,32.40
2019-02-17T10:38:40.882Z,28.67
2019-02-17T10:41:08.669Z,30.73
2019-02-17T10:43:36.455Z,30.73
2019-02-17T10:46:06.109Z,29.93
2019-02-17T10:48:33.966Z,27.77
2019-02-17T10:51:01.915Z,28.87
2019-02-17T10:53:29.703Z,27.93
2019-02-17T10:55:57.651Z,30.93
2019-02-17T10:58:25.411Z,34.10
2019-02-17T11:00:53.350Z,26.50
2019-02-17T11:03:21.138Z,29.07
2019-02-17T11:05:49.799Z,34.60
2019-02-17T11:08:17.835Z,25.67
2019-02-17T11:10:46.005Z,27.93
2019-02-17T11:13:13.937Z,26.37
2019-02-17T11:15:55.737Z,29.07
2019-02-17T11:18:23.660Z,32.33
2019-02-17T11:20:51.506Z,31.80
2019-02-17T11:23:19.456Z,29.80
2019-02-17T11:25:47.286Z,28.90
2019-02-17T11:28:15.758Z,32.63
2019-02-17T11:30:43.799Z,28.80
2019-02-17T11:33:11.693Z,28.23
2019-02-17T11:35:39.673Z,26.80
2019-02-17T11:38:07.428Z,28.43
2019-02-17T11:40:35.266Z,26.10
2019-02-17T11:43:03.246Z,24.37
2019-02-17T11:45:31.100Z,27.03
2019-02-17T11:47:59.362Z,29.63
2019-02-17T11:50:27.142Z,30.43
2019-02-17T11:52:54.975Z,26.57
2019-02-17T11:55:23.091Z,30.40
2019-02-17T11:57:50.921Z,23.33
2019-02-17T12:00:19.857Z,26.47
2019-02-17T12:02:48.203Z,26.13
2019-02-17T12:05:16.812Z,24.97
2019-02-17T12:07:44.788Z,24.90
2019-02-17T12:10:12.722Z,25.57
2019-02-17T12:12:40.516Z,25.07
2019-02-17T12:15:09.225Z,24.33
2019-02-17T12:17:37.196Z,23.00
2019-02-17T12:20:27.443Z,25.53
2019-02-17T12:22:59.840Z,25.73
2019-02-17T12:25:37.934Z,23.77
2019-02-17T12:28:13.085Z,25.40
2019-02-17T12:30:42.343Z,21.30
2019-02-17T12:33:18.298Z,22.37
2019-02-17T12:35:39.876Z,21.83
2019-02-17T12:38:07.923Z,22.53
2019-02-17T12:40:35.866Z,20.27
2019-02-17T12:43:03.673Z,19.10
2019-02-17T12:45:31.436Z,18.73
2019-02-17T12:47:59.281Z,19.17
2019-02-17T12:50:27.149Z,19.80
2019-02-17T12:52:55.033Z,17.07
2019-02-17T12:55:22.817Z,22.50
2019-02-17T12:57:50.686Z,16.60
2019-02-17T13:00:18.813Z,16.20
2019-02-17T13:02:47.034Z,18.93
2019-02-17T13:05:15.135Z,19.13
2019-02-17T13:07:43.121Z,18.97
2019-02-17T13:10:11.073Z,19.23
2019-02-17T13:12:38.999Z,18.43
2019-02-17T13:15:08.483Z,19.60
2019-02-17T13:17:36.382Z,20.20
2019-02-17T13:20:05.269Z,17.83
2019-02-17T13:22:33.051Z,26.37
2019-02-17T13:25:01.024Z,44.07
2019-02-17T13:27:31.299Z,46.77
2019-02-17T13:29:59.388Z,29.47
2019-02-17T13:32:27.346Z,55.40
2019-02-17T13:34:55.265Z,29.30
2019-02-17T13:37:23.058Z,46.60
2019-02-17T13:39:51.015Z,47.83
2019-02-17T13:42:19.434Z,31.90
2019-02-17T13:44:47.193Z,36.50
2019-02-17T13:47:15.115Z,27.83
2019-02-17T13:49:42.919Z,38.83
2019-02-17T13:52:10.771Z,33.40
2019-02-17T13:54:38.757Z,34.67
2019-02-17T13:57:06.677Z,27.73
2019-02-17T13:59:34.604Z,26.13
2019-02-17T14:02:03.090Z,32.83
2019-02-17T14:04:31.247Z,41.30
2019-02-17T14:06:59.179Z,26.97
2019-02-17T14:09:27.095Z,28.83
2019-02-17T14:11:54.978Z,39.00
2019-02-17T14:14:22.917Z,26.97
2019-02-17T14:16:50.756Z,23.17
2019-02-17T14:19:18.715Z,26.50
2019-02-17T14:21:46.620Z,26.87
2019-02-17T14:24:14.397Z,26.77
2019-02-17T14:26:42.258Z,28.93
2019-02-17T14:29:10.745Z,27.50
2019-02-17T14:31:38.786Z,21.87
2019-02-17T14:34:06.535Z,25.13
2019-02-17T14:36:34.382Z,24.80
2019-02-17T14:39:03.977Z,21.37
2019-02-17T14:41:31.768Z,26.40
2019-02-17T14:43:59.796Z,21.07
2019-02-17T14:46:27.600Z,22.60
2019-02-17T14:48:55.457Z,25.67
2019-02-17T14:51:23.353Z,23.77
2019-02-17T14:53:51.122Z,24.43
2019-02-17T14:56:18.938Z,24.67
2019-02-17T14:58:46.831Z,24.80
2019-02-17T15:01:14.735Z,21.67
2019-02-17T15:03:42.630Z,25.73
2019-02-17T15:06:10.594Z,25.37
2019-02-17T15:08:38.504Z,25.03
2019-02-17T15:11:06.351Z,30.63
2019-02-17T15:13:34.322Z,26.23
2019-02-17T15:16:02.219Z,25.23
2019-02-17T15:18:30.134Z,30.47
2019-02-17T15:20:57.966Z,33.53
2019-02-17T15:23:25.791Z,19.33
2019-02-17T15:25:53.630Z,27.60
2019-02-17T15:28:22.056Z,21.03
2019-02-17T15:30:49.838Z,21.83
2019-02-17T15:33:17.633Z,20.73
2019-02-17T15:35:45.536Z,20.40
2019-02-17T15:38:13.405Z,23.20
2019-02-17T15:40:41.388Z,27.97
2019-02-17T15:43:09.323Z,25.50
2019-02-17T15:45:37.191Z,19.53
2019-02-17T15:48:05.105Z,22.23
2019-02-17T15:50:32.976Z,20.90
2019-02-17T15:53:00.833Z,19.83
2019-02-17T15:55:28.737Z,23.73
2019-02-17T15:57:56.741Z,23.27
2019-02-17T16:00:24.644Z,32.90
2019-02-17T16:02:52.430Z,28.97
2019-02-17T16:05:20.287Z,29.50
2019-02-17T16:07:48.132Z,28.80
2019-02-17T16:10:16.676Z,26.57
2019-02-17T16:12:45.879Z,57.03
2019-02-17T16:15:14.774Z,79.73
2019-02-17T16:17:42.764Z,59.83
2019-02-17T16:20:12.007Z,50.30
2019-02-17T16:22:39.937Z,47.87
2019-02-17T16:25:08.146Z,52.87
2019-02-17T16:27:36.200Z,54.93
2019-02-17T16:30:04.904Z,67.87
2019-02-17T16:32:32.657Z,77.43
2019-02-17T16:35:00.503Z,454.93
2019-02-17T16:37:40.084Z,600.47
2019-02-17T16:40:09.948Z,409.30
2019-02-17T16:42:37.809Z,222.50
2019-02-17T16:45:06.429Z,434.33
2019-02-17T16:47:34.342Z,358.40
2019-02-17T16:50:02.208Z,250.97
2019-02-17T16:52:30.130Z,186.17
2019-02-17T16:54:58.009Z,191.37
2019-02-17T16:57:25.977Z,185.30
2019-02-17T16:59:54.443Z,189.77
2019-02-17T17:02:22.234Z,361.07
2019-02-17T17:04:50.140Z,244.40
2019-02-17T17:07:18.090Z,208.00
2019-02-17T17:09:46.015Z,183.67
2019-02-17T17:12:13.855Z,144.30
2019-02-17T17:14:41.723Z,150.43
2019-02-17T17:17:09.665Z,119.23
2019-02-17T17:19:37.574Z,148.37
2019-02-17T17:22:05.681Z,140.40
2019-02-17T17:24:33.445Z,140.03
2019-02-17T17:27:01.677Z,151.10
2019-02-17T17:29:29.472Z,165.83
2019-02-17T17:31:57.422Z,173.07
2019-02-17T17:34:25.450Z,168.20
2019-02-17T17:36:53.348Z,147.80
2019-02-17T17:39:31.381Z,132.90
2019-02-17T17:41:59.377Z,112.33
2019-02-17T17:44:27.443Z,127.27
2019-02-17T17:46:55.240Z,245.17
2019-02-17T17:49:23.096Z,199.67
2019-02-17T17:51:51.021Z,127.50
2019-02-17T17:54:18.888Z,123.13
2019-02-17T17:56:47.836Z,130.03
2019-02-17T17:59:15.623Z,148.57
2019-02-17T18:01:43.838Z,166.23
2019-02-17T18:04:11.594Z,216.67
2019-02-17T18:06:39.378Z,162.07
2019-02-17T18:09:07.726Z,122.50
2019-02-17T18:11:35.596Z,126.00
2019-02-17T18:14:03.839Z,112.70
2019-02-17T18:16:31.631Z,116.53
2019-02-17T18:18:59.496Z,115.27
2019-02-17T18:21:27.249Z,162.83
2019-02-17T18:23:55.226Z,185.17
2019-02-17T18:26:23.371Z,232.83
2019-02-17T18:28:51.145Z,191.07
2019-02-17T18:31:19.207Z,149.60
2019-02-17T18:33:47.146Z,147.00
2019-02-17T18:36:15.053Z,151.77
2019-02-17T18:38:42.808Z,147.83
2019-02-17T18:41:13.245Z,200.17
2019-02-17T18:43:41.165Z,228.17
2019-02-17T18:46:09.948Z,229.90
2019-02-17T18:48:37.752Z,210.57
2019-02-17T18:51:05.653Z,177.50
2019-02-17T18:53:33.625Z,220.47
2019-02-17T18:56:02.193Z,191.63
2019-02-17T18:58:30.039Z,195.60
2019-02-17T19:00:57.852Z,214.13
2019-02-17T19:03:25.633Z,227.03
2019-02-17T19:05:53.595Z,243.07
2019-02-17T19:08:21.345Z,251.37
2019-02-17T19:10:49.632Z,228.97
2019-02-17T19:13:17.465Z,175.37
2019-02-17T19:15:46.190Z,197.87
2019-02-17T19:18:14.114Z,216.20
2019-02-17T19:20:42.103Z,205.30
2019-02-17T19:23:10.284Z,192.83
2019-02-17T19:25:38.183Z,199.17
2019-02-17T19:28:06.233Z,200.50
2019-02-17T19:30:34.165Z,214.53
2019-02-17T19:33:02.149Z,239.03
2019-02-17T19:35:30.126Z,283.17
2019-02-17T19:37:57.948Z,274.97
2019-02-17T19:40:26.116Z,220.87
2019-02-17T19:42:54.307Z,182.30
2019-02-17T19:45:22.618Z,175.63
2019-02-17T19:47:50.557Z,160.70
2019-02-17T19:50:18.424Z,168.63
2019-02-17T19:52:46.298Z,175.40
2019-02-17T19:55:14.449Z,167.50
2019-02-17T19:57:42.571Z,193.03
2019-02-17T20:00:11.824Z,241.70
2019-02-17T20:03:05.096Z,200.20
2019-02-17T20:05:35.614Z,180.50
2019-02-17T20:08:03.540Z,200.93
2019-02-17T20:10:31.430Z,191.47
2019-02-17T20:12:59.328Z,167.03
2019-02-17T20:15:29.714Z,174.67
2019-02-17T20:17:57.509Z,168.50
2019-02-17T20:20:25.489Z,159.53
2019-02-17T20:22:53.663Z,149.37
2019-02-17T20:25:21.665Z,151.63
2019-02-17T20:27:50.573Z,159.83
2019-02-17T20:30:18.471Z,166.93
2019-02-17T20:32:46.401Z,172.03
2019-02-17T20:35:14.500Z,171.60
2019-02-17T20:37:42.474Z,173.30
2019-02-17T20:40:10.923Z,179.27
2019-02-17T20:42:38.801Z,161.63
2019-02-17T20:45:07.330Z,163.77
2019-02-17T20:47:35.198Z,174.10
2019-02-17T20:50:03.702Z,170.43
2019-02-17T20:52:31.647Z,259.30
2019-02-17T20:54:59.505Z,375.47
2019-02-17T20:57:27.764Z,326.00
2019-02-17T20:59:55.606Z,424.93
2019-02-17T21:02:23.455Z,552.60
2019-02-17T21:04:51.339Z,345.93
2019-02-17T21:07:19.181Z,388.47
2019-02-17T21:09:47.108Z,255.37
2019-02-17T21:12:15.249Z,209.70
2019-02-17T21:14:43.365Z,189.27
2019-02-17T21:17:11.255Z,197.83
2019-02-17T21:19:39.097Z,196.67
2019-02-17T21:22:06.968Z,194.77
2019-02-17T21:24:34.859Z,196.63
2019-02-17T21:27:06.395Z,202.90
2019-02-17T21:29:34.505Z,200.57
2019-02-17T21:32:02.705Z,232.90
2019-02-17T21:34:30.651Z,231.63
2019-02-17T21:36:58.432Z,233.40
2019-02-17T21:39:26.276Z,245.20
2019-02-17T21:41:54.180Z,229.90
2019-02-17T21:44:22.114Z,241.50
2019-02-17T21:46:50.002Z,230.23
2019-02-17T21:49:18.019Z,213.60
2019-02-17T21:51:45.825Z,200.33
2019-02-17T21:54:14.049Z,177.87
2019-02-17T21:56:42.023Z,201.30
2019-02-17T21:59:09.844Z,227.40
2019-02-17T22:01:37.716Z,192.57
2019-02-17T22:04:05.653Z,231.60
2019-02-17T22:06:33.929Z,523.17
2019-02-17T22:09:01.938Z,458.27
2019-02-17T22:11:29.766Z,512.30
2019-02-17T22:13:57.526Z,193.60
2019-02-17T22:16:25.434Z,226.20
2019-02-17T22:18:53.298Z,314.00
2019-02-17T22:21:21.314Z,336.87
2019-02-17T22:23:49.114Z,305.90
2019-02-17T22:26:27.903Z,287.97
2019-02-17T22:28:55.821Z,286.13
2019-02-17T22:31:23.813Z,287.10
2019-02-17T22:33:51.844Z,284.13
2019-02-17T22:36:19.788Z,245.40
2019-02-17T22:38:47.566Z,232.93
2019-02-17T22:41:15.505Z,222.63
2019-02-17T22:43:43.387Z,224.57
2019-02-17T22:46:11.301Z,216.53
2019-02-17T22:48:39.106Z,231.37
2019-02-17T22:51:07.056Z,222.20
2019-02-17T22:53:43.399Z,231.07
2019-02-17T22:56:04.766Z,220.37
2019-02-17T22:58:32.630Z,220.37
2019-02-17T23:01:03.417Z,305.87
2019-02-17T23:03:31.859Z,272.97
2019-02-17T23:06:00.069Z,231.27
2019-02-17T23:08:27.941Z,216.87
2019-02-17T23:10:55.757Z,208.70
2019-02-17T23:13:23.755Z,204.32
2019-02-17T23:15:51.806Z,194.45
2019-02-17T23:18:19.691Z,187.97
2019-02-17T23:20:47.669Z,204.47
2019-02-17T23:23:15.798Z,199.30
2019-02-17T23:25:43.652Z,197.40
2019-02-17T23:28:13.873Z,191.82
2019-02-17T23:30:41.738Z,201.70
2019-02-17T23:33:09.698Z,202.97
2019-02-17T23:35:37.713Z,202.65
2019-02-17T23:38:05.499Z,191.10
2019-02-17T23:40:33.815Z,195.70
2019-02-17T23:43:01.688Z,182.90
2019-02-17T23:45:29.840Z,197.90
2019-02-17T23:47:57.719Z,191.62
2019-02-17T23:50:25.772Z,193.22
2019-02-17T23:52:54.699Z,192.60
2019-02-17T23:55:22.906Z,203.58
2019-02-17T23:57:50.982Z,208.28
